• Join FlightAware (Why Join?)
  • Login
  • US Flag 
05:54AM EST


 

Airport Tracker/Info


-or-


 

Live Flight TrackerFlight Track Log ✈ FSR411 ✈ 26-Nov-2013 ✈ KBOS - KCMI

Flight Track Log - Related Links

Times and Time Zones

All times are in EST time to prevent confusion due to time zone crossing. See the FSR411 flight status page for this flight to view local times or setup timezone preferences in your user account.

Time Position Orientation Groundspeed Altitude Reporting Facility
EST Latitude Longitude Course Direction KTS MPH feet Rate Location/Type
08:11PM 42.3667 -71.0167 180° South 157 181 500  Level KA90
08:12PM 42.3333 -71.0167 180° South 195 224 2,600 3,180 Climbing KA90
08:13PM 42.3000 -70.9167 114° Southeast 275 316 6,300 2,880 Climbing KA90
08:15PM 42.3406 -70.7756 69° East 305 351 10,500 2,820 Climbing Boston Center
08:16PM 42.4247 -70.7136 29° Northeast 352 405 13,400 2,760 Climbing Boston Center
08:17PM 42.5222 -70.7519 344° North 371 427 16,200 2,580 Climbing Boston Center
08:18PM 42.5894 -70.8697 308° West 372 428 18,600 1,800 Climbing Boston Center
08:19PM 42.6400 -70.9806 302° West 381 438 19,900 1,560 Climbing Boston Center
08:20PM 42.6986 -71.1042 303° West 389 448 21,900 2,820 Climbing Boston Center
08:21PM 42.7733 -71.2578 304° West 403 464 25,600 3,060 Climbing Boston Center
08:22PM 42.7956 -71.3928 283° West 371 427 28,300 2,400 Climbing Boston Center
08:23PM 42.8064 -71.5281 276° West 361 415 30,600 2,220 Climbing Boston Center
08:24PM 42.8175 -71.6411 278° West 352 405 32,800 1,680 Climbing Boston Center
08:25PM 42.8317 -71.7933 277° West 340 391 34,000 540 Climbing Boston Center
08:26PM 42.8439 -71.9244 277° West 348 400 34,000 720 Level Boston Center
08:27PM 42.8564 -72.0572 277° West 354 407 35,500 1,560 Climbing Boston Center
08:28PM 42.8678 -72.1808 277° West 335 386 37,200 1,260 Climbing Boston Center
08:29PM 42.8783 -72.2981 277° West 331 381 38,100 1,080 Climbing Boston Center
08:30PM 42.8897 -72.4197 277° West 327 376 39,500 1,500 Climbing Boston Center
08:31PM 42.9014 -72.5583 277° West 309 356 41,200 1,260 Climbing Boston Center
08:32PM 42.9100 -72.6617 277° West 294 338 42,100 660 Climbing Boston Center
08:33PM 42.9194 -72.7725 277° West 294 338 42,600 420 Climbing Boston Center
08:34PM 42.9292 -72.8864 277° West 300 345 43,000 180 Climbing Boston Center
08:35PM 42.9397 -73.0108 277° West 308 354 43,000  Level Boston Center
08:36PM 42.9394 -73.1339 270° West 324 373 43,000  Level Boston Center
08:37PM 42.9406 -73.2572 271° West 327 376 43,000  Level Boston Center
08:38PM 42.9403 -73.3731 270° West 328 377 43,000  Level Boston Center
08:39PM 42.9411 -73.5206 270° West 325 374 43,000  Level Boston Center
08:40PM 42.9408 -73.6414 270° West 320 368 43,000  Level Boston Center
08:41PM 42.9408 -73.7586 270° West 312 359 43,000  Level Boston Center
08:42PM 42.9394 -73.8769 269° West 311 358 43,000  Level Boston Center
08:43PM 42.9219 -73.9894 258° West 302 348 43,000  Level Boston Center
08:44PM 42.9092 -74.1056 261° West 307 353 43,000  Level Boston Center
08:45PM 42.8942 -74.2231 260° West 312 359 43,000  Level Boston Center
08:46PM 42.8808 -74.3403 261° West 313 360 43,000  Level Boston Center
08:47PM 42.8661 -74.4572 260° West 313 360 43,000  Level Boston Center
08:48PM 42.8506 -74.5722 260° West 310 357 43,000  Level Boston Center
08:49PM 42.8361 -74.6853 260° West 304 350 43,000  Level Boston Center
08:50PM 42.8231 -74.7989 261° West 302 348 43,000  Level Boston Center
08:51PM 42.8092 -74.9117 261° West 301 346 43,000  Level Boston Center
08:52PM 42.7908 -75.0472 260° West 302 348 43,000  Level Boston Center
08:53PM 42.7767 -75.1608 260° West 303 349 43,000  Level Boston Center
08:54PM 42.7614 -75.2750 260° West 305 351 43,000  Level Boston Center
08:55PM 42.7464 -75.3889 260° West 304 350 43,000  Level Boston Center
08:56PM 42.7319 -75.5039 260° West 309 356 43,000  Level Boston Center
08:58PM 42.7172 -75.6167 260° West 304 350 43,000  Level Boston Center
08:59PM 42.7011 -75.7297 259° West 304 350 43,000  Level Boston Center
09:00PM 42.6864 -75.8425 260° West 303 349 43,000  Level Boston Center
09:01PM 42.6711 -75.9553 260° West 303 349 43,000  Level Boston Center
09:02PM 42.6567 -76.0683 260° West 304 350 43,000  Level Boston Center
09:03PM 42.6403 -76.1817 259° West 306 352 43,000  Level Boston Center
09:04PM 42.6222 -76.3050 259° West 306 352 43,000  Level Boston Center
09:05PM 42.6061 -76.4194 259° West 308 354 43,000  Level Boston Center
09:06PM 42.5914 -76.5314 260° West 304 350 43,000  Level Boston Center
09:07PM 42.5744 -76.6461 259° West 308 354 43,000  Level Boston Center
09:08PM 42.5586 -76.7589 259° West 306 352 43,000  Level Boston Center
09:09PM 42.5417 -76.8731 259° West 308 354 43,000  Level Boston Center
09:10PM 42.5253 -76.9853 259° West 306 352 43,000  Level Boston Center
09:11PM 42.5083 -77.0997 259° West 309 356 43,000  Level Boston Center
09:12PM 42.4908 -77.2161 259° West 313 360 43,000  Level Boston Center
09:13PM 42.4706 -77.3558 259° West 313 360 43,000  Level Boston Center
09:14PM 42.4458 -77.5036 257° West 310 357 43,000  Level Cleveland Center
09:15PM 42.4256 -77.6353 258° West 311 358 43,000  Level Cleveland Center
09:16PM 42.4092 -77.7458 259° West 309 356 43,000  Level Cleveland Center
09:17PM 42.3911 -77.8611 258° West 311 358 43,000  Level Cleveland Center
09:18PM 42.3756 -77.9761 260° West 310 357 43,000  Level Cleveland Center
09:19PM 42.3686 -78.0956 266° West 315 362 43,000  Level Cleveland Center
09:20PM 42.3589 -78.2153 264° West 321 369 43,000  Level Cleveland Center
09:21PM 42.3483 -78.3589 264° West 320 368 43,000  Level Cleveland Center
09:22PM 42.3397 -78.4789 264° West 321 369 43,000  Level Cleveland Center
09:23PM 42.3306 -78.5989 264° West 322 371 43,000  Level Cleveland Center
09:25PM 42.3206 -78.7192 264° West 324 373 43,000  Level Cleveland Center
09:26PM 42.3119 -78.8414 265° West 326 375 43,000  Level Cleveland Center
09:27PM 42.3019 -78.9839 265° West 335 386 43,000  Level Cleveland Center
09:28PM 42.2925 -79.1056 264° West 330 380 43,000  Level Cleveland Center
09:29PM 42.2819 -79.2297 263° West 334 384 43,000  Level Cleveland Center
09:30PM 42.2717 -79.3533 264° West 335 386 43,000  Level Cleveland Center
09:31PM 42.2622 -79.4778 264° West 338 389 43,000  Level Cleveland Center
09:32PM 42.2522 -79.6019 264° West 338 389 43,000  Level Cleveland Center
09:33PM 42.2406 -79.7283 263° West 341 392 43,000  Level Cleveland Center
09:34PM 42.2283 -79.8806 264° West 342 394 43,000  Level Cleveland Center
09:35PM 42.2153 -80.0139 263° West 355 409 43,000  Level Cleveland Center
09:36PM 42.2042 -80.1511 264° West 361 415 43,000  Level Cleveland Center
09:37PM 42.1914 -80.2825 263° West 354 407 43,000  Level Cleveland Center
09:38PM 42.1797 -80.4197 264° West 366 421 43,000  Level Cleveland Center
09:39PM 42.1669 -80.5561 263° West 366 421 43,000  Level Cleveland Center
09:40PM 42.1539 -80.6936 263° West 368 423 43,000  Level Cleveland Center
09:41PM 42.1406 -80.8331 263° West 372 428 43,000  Level Cleveland Center
09:42PM 42.1272 -80.9700 263° West 367 422 43,000  Level Cleveland Center
09:43PM 42.1117 -81.1306 263° West 368 423 43,000  Level Cleveland Center
09:44PM 42.0978 -81.2686 262° West 370 426 43,000  Level Cleveland Center
09:45PM 42.0847 -81.4061 263° West 369 425 43,000  Level Cleveland Center
09:46PM 42.0542 -81.5369 253° West 364 419 43,000  Level Cleveland Center
09:47PM 42.0192 -81.6653 250° West 364 419 43,000  Level Cleveland Center
09:48PM 41.9850 -81.7950 251° West 366 421 43,000  Level Cleveland Center
09:49PM 41.9500 -81.9253 250° West 368 423 43,000  Level Cleveland Center
09:50PM 41.9153 -82.0544 250° West 366 421 43,000  Level Cleveland Center
09:51PM 41.8792 -82.1919 251° West 367 422 43,000  Level Cleveland Center
09:52PM 41.8442 -82.3214 250° West 369 425 43,000  Level Cleveland Center
09:53PM 41.8100 -82.4500 250° West 366 421 43,000  Level Cleveland Center
09:54PM 41.7753 -82.5794 250° West 368 423 43,000  Level Cleveland Center
09:55PM 41.7400 -82.7094 250° West 370 426 43,000  Level Cleveland Center
09:56PM 41.6969 -82.8650 250° West 372 428 43,000  Level Cleveland Center
09:57PM 41.6611 -82.9950 250° West 372 428 43,000  Level Cleveland Center
09:58PM 41.6269 -83.1158 249° West 371 427 43,000  Level Cleveland Center
09:59PM 41.5886 -83.2544 250° West 373 429 43,000  Level Cleveland Center
10:00PM 41.5519 -83.3836 249° West 372 428 43,000  Level Cleveland Center
10:01PM 41.5156 -83.5147 250° West 376 433 43,000  Level Cleveland Center
10:03PM 41.4786 -83.6472 250° West 380 437 43,000  Level Cleveland Center
10:04PM 41.4406 -83.7786 249° West 379 436 43,000  Level Cleveland Center
10:05PM 41.4019 -83.9106 249° West 381 438 43,000  Level Cleveland Center
10:05PM 41.3647 -84.0392 249° West 382 440 43,000  Level Chicago Center
10:06PM 41.3269 -84.1719 249° West 382 440 43,000  Level Chicago Center
10:07PM 41.2889 -84.3036 249° West 382 440 43,000  Level Chicago Center
10:08PM 41.2500 -84.4361 249° West 384 442 43,000  Level Chicago Center
10:09PM 41.2108 -84.5675 248° West 382 440 43,000  Level Chicago Center
10:10PM 41.1722 -84.7003 249° West 385 443 43,000  Level Chicago Center
10:11PM 41.1328 -84.8314 248° West 383 441 43,000  Level Chicago Center
10:13PM 41.0936 -84.9628 248° West 381 438 43,000  Level Chicago Center
10:14PM 41.0550 -85.0931 249° West 381 438 43,000  Level Chicago Center
10:15PM 41.0150 -85.2244 248° West 382 440 43,000  Level Chicago Center
10:16PM 40.9667 -85.3822 248° West 384 442 43,000  Level Chicago Center
10:17PM 40.9278 -85.5131 249° West 383 441 43,000  Level Chicago Center
10:18PM 40.8875 -85.6456 248° West 388 447 43,000  Level Chicago Center
10:19PM 40.8450 -85.7761 247° West 387 445 43,000 -720 Level Chicago Center
10:20PM 40.7897 -85.8950 238° Southwest 381 438 41,600 -1,740 Descending Chicago Center
10:21PM 40.7317 -86.0069 236° Southwest 371 427 39,500 -2,160 Descending Chicago Center
10:22PM 40.6786 -86.1231 239° Southwest 373 429 37,200 -2,280 Descending Chicago Center
10:23PM 40.6397 -86.2506 248° West 378 435 34,900 -2,640 Descending Chicago Center
10:24PM 40.5975 -86.4014 250° West 373 429 31,900 -2,760 Descending Chicago Center
10:25PM 40.5628 -86.5206 249° West 360 414 29,300 -2,520 Descending Chicago Center
10:26PM 40.5258 -86.6464 249° West 365 420 26,800 -2,400 Descending Chicago Center
10:27PM 40.4875 -86.7792 249° West 386 444 24,500 -2,400 Descending Chicago Center
10:28PM 40.4494 -86.9072 249° West 382 440 22,000 -2,460 Descending Chicago Center
10:29PM 40.4164 -87.0261 250° West 357 411 19,500 -2,400 Descending Chicago Center
10:30PM 40.3808 -87.1433 248° West 350 403 17,200 -2,280 Descending Chicago Center
10:31PM 40.3394 -87.2842 249° West 347 399 14,900 -2,100 Descending Chicago Center
10:32PM 40.3056 -87.3986 249° West 341 392 13,000 -1,860 Descending Chicago Center
10:33PM 40.2708 -87.5086 248° West 310 357 11,200 -1,620 Descending Chicago Center
10:34PM 40.2317 -87.5914 238° Southwest 279 321 9,700 -1,620 Descending Chicago Center
10:35PM 40.1958 -87.6742 240° Southwest 265 305 7,900 -1,740 Descending Chicago Center
10:36PM 40.1608 -87.7511 239° Southwest 265 305 6,200 -1,800 Descending Chicago Center
10:37PM 40.1225 -87.8367 240° Southwest 260 299 4,300 -1,080 Descending Chicago Center
10:38PM 40.0864 -87.9150 239° Southwest 259 298 4,000 -300 Descending Chicago Center
10:40PM 40.0649 -88.0799 252° West  Level Estimated
10:47PM 40.0333 -88.2667 252° West  Level FlightAware Approximate
10:48PM 40.0388 -88.2778 252° West  Level Estimated
10:49PM 40.0388 -88.2778 252° West  Level Estimated
10:50PM 40.0388 -88.2778 252° West  Level Estimated
10:51PM 40.0388 -88.2778 252° West  Level Estimated
10:52PM 40.0388 -88.2778 252° West  Level Estimated